sensor_id;sensor_type;location;lat;lon;timestamp;pressure;altitude;pressure_sealevel;temperature;humidity
76132;BME280;64877;50.994;13.650;2023-07-31T00:00:50;99328.63;;;18.98;64.45
76132;BME280;64877;50.994;13.650;2023-07-31T00:03:16;99328.31;;;18.93;63.93
76132;BME280;64877;50.994;13.650;2023-07-31T00:05:43;99327.59;;;18.99;63.50
76132;BME280;64877;50.994;13.650;2023-07-31T00:08:09;99328.94;;;19.03;63.26
76132;BME280;64877;50.994;13.650;2023-07-31T00:10:35;99327.44;;;19.00;63.68
76132;BME280;64877;50.994;13.650;2023-07-31T00:13:00;99323.84;;;19.00;62.89
76132;BME280;64877;50.994;13.650;2023-07-31T00:15:25;99320.66;;;18.88;63.39
76132;BME280;64877;50.994;13.650;2023-07-31T00:17:51;99325.00;;;18.74;64.00
76132;BME280;64877;50.994;13.650;2023-07-31T00:20:16;99321.59;;;18.72;64.14
76132;BME280;64877;50.994;13.650;2023-07-31T00:22:42;99323.31;;;18.73;64.47
76132;BME280;64877;50.994;13.650;2023-07-31T00:25:07;99329.81;;;18.64;64.98
76132;BME280;64877;50.994;13.650;2023-07-31T00:27:33;99322.88;;;18.53;65.66
76132;BME280;64877;50.994;13.650;2023-07-31T00:29:59;99321.81;;;18.54;65.70
76132;BME280;64877;50.994;13.650;2023-07-31T00:32:24;99317.03;;;18.56;65.85
76132;BME280;64877;50.994;13.650;2023-07-31T00:34:50;99313.19;;;18.43;66.21
76132;BME280;64877;50.994;13.650;2023-07-31T00:37:15;99308.44;;;18.37;66.93
76132;BME280;64877;50.994;13.650;2023-07-31T00:39:41;99311.19;;;18.28;67.25
76132;BME280;64877;50.994;13.650;2023-07-31T00:42:06;99304.34;;;18.32;67.08
76132;BME280;64877;50.994;13.650;2023-07-31T00:44:32;99307.38;;;18.38;67.40
76132;BME280;64877;50.994;13.650;2023-07-31T00:46:59;99308.09;;;18.31;67.35
76132;BME280;64877;50.994;13.650;2023-07-31T00:49:25;99300.56;;;18.33;67.46
76132;BME280;64877;50.994;13.650;2023-07-31T00:51:51;99300.41;;;18.35;67.68
76132;BME280;64877;50.994;13.650;2023-07-31T00:54:17;99303.16;;;18.35;67.38
76132;BME280;64877;50.994;13.650;2023-07-31T00:56:45;99299.22;;;18.29;67.76
76132;BME280;64877;50.994;13.650;2023-07-31T00:59:11;99299.91;;;18.31;67.60
76132;BME280;64877;50.994;13.650;2023-07-31T01:01:37;99298.22;;;18.30;67.50
76132;BME280;64877;50.994;13.650;2023-07-31T01:04:02;99294.31;;;18.17;67.99
76132;BME280;64877;50.994;13.650;2023-07-31T01:06:44;99288.66;;;18.26;67.99
76132;BME280;64877;50.994;13.650;2023-07-31T01:12:23;99290.56;;;18.18;67.90
76132;BME280;64877;50.994;13.650;2023-07-31T01:15:09;99284.78;;;18.13;67.62
76132;BME280;64877;50.994;13.650;2023-07-31T01:17:41;99284.25;;;18.09;67.88
76132;BME280;64877;50.994;13.650;2023-07-31T01:20:13;99283.72;;;18.14;67.70
76132;BME280;64877;50.994;13.650;2023-07-31T01:28:37;99280.34;;;18.12;67.74
76132;BME280;64877;50.994;13.650;2023-07-31T01:31:07;99288.03;;;18.08;67.96
76132;BME280;64877;50.994;13.650;2023-07-31T01:33:33;99281.91;;;18.06;68.19
76132;BME280;64877;50.994;13.650;2023-07-31T01:36:00;99284.13;;;18.02;68.10
76132;BME280;64877;50.994;13.650;2023-07-31T01:38:26;99286.72;;;17.96;69.46
76132;BME280;64877;50.994;13.650;2023-07-31T01:40:52;99278.19;;;17.91;69.13
76132;BME280;64877;50.994;13.650;2023-07-31T01:43:19;99275.47;;;17.82;69.58
76132;BME280;64877;50.994;13.650;2023-07-31T01:45:44;99275.81;;;17.88;68.89
76132;BME280;64877;50.994;13.650;2023-07-31T01:48:09;99272.03;;;17.89;68.94
76132;BME280;64877;50.994;13.650;2023-07-31T01:50:35;99273.53;;;17.99;68.63
76132;BME280;64877;50.994;13.650;2023-07-31T01:53:00;99267.22;;;17.99;67.94
76132;BME280;64877;50.994;13.650;2023-07-31T01:55:26;99267.06;;;18.00;68.96
76132;BME280;64877;50.994;13.650;2023-07-31T01:57:51;99261.41;;;18.10;68.00
76132;BME280;64877;50.994;13.650;2023-07-31T02:00:17;99261.22;;;18.03;67.88
76132;BME280;64877;50.994;13.650;2023-07-31T02:02:44;99265.13;;;18.09;68.43
76132;BME280;64877;50.994;13.650;2023-07-31T02:05:09;99263.56;;;18.15;67.14
76132;BME280;64877;50.994;13.650;2023-07-31T02:07:36;99257.63;;;18.11;66.96
76132;BME280;64877;50.994;13.650;2023-07-31T02:10:02;99255.75;;;18.12;67.27
76132;BME280;64877;50.994;13.650;2023-07-31T02:12:27;99253.84;;;18.12;66.84
76132;BME280;64877;50.994;13.650;2023-07-31T02:14:56;99255.56;;;18.13;66.84
76132;BME280;64877;50.994;13.650;2023-07-31T02:17:21;99248.53;;;18.19;66.68
76132;BME280;64877;50.994;13.650;2023-07-31T02:19:47;99247.78;;;18.25;66.31
76132;BME280;64877;50.994;13.650;2023-07-31T02:22:12;99252.56;;;18.31;65.99
76132;BME280;64877;50.994;13.650;2023-07-31T02:24:38;99248.38;;;18.20;66.34
76132;BME280;64877;50.994;13.650;2023-07-31T02:27:03;99252.41;;;18.24;66.11
76132;BME280;64877;50.994;13.650;2023-07-31T02:29:29;99255.47;;;18.29;66.23
76132;BME280;64877;50.994;13.650;2023-07-31T02:31:55;99245.03;;;18.33;65.71
76132;BME280;64877;50.994;13.650;2023-07-31T02:34:20;99240.78;;;18.30;65.26
76132;BME280;64877;50.994;13.650;2023-07-31T02:36:45;99252.78;;;18.21;65.83
76132;BME280;64877;50.994;13.650;2023-07-31T02:39:11;99250.72;;;18.23;66.50
76132;BME280;64877;50.994;13.650;2023-07-31T02:41:36;99255.22;;;18.16;66.55
76132;BME280;64877;50.994;13.650;2023-07-31T02:44:02;99245.63;;;18.20;66.38
76132;BME280;64877;50.994;13.650;2023-07-31T02:46:28;99250.09;;;18.13;66.32
76132;BME280;64877;50.994;13.650;2023-07-31T02:48:54;99241.06;;;18.04;66.75
76132;BME280;64877;50.994;13.650;2023-07-31T02:51:20;99240.06;;;18.05;66.56
76132;BME280;64877;50.994;13.650;2023-07-31T02:53:47;99242.28;;;18.02;66.57
76132;BME280;64877;50.994;13.650;2023-07-31T02:56:13;99240.41;;;18.02;66.25
76132;BME280;64877;50.994;13.650;2023-07-31T02:58:38;99240.94;;;17.98;66.82
76132;BME280;64877;50.994;13.650;2023-07-31T03:01:04;99239.25;;;17.89;67.66
76132;BME280;64877;50.994;13.650;2023-07-31T03:03:29;99238.06;;;17.91;68.05
76132;BME280;64877;50.994;13.650;2023-07-31T03:05:55;99247.97;;;17.92;68.10
76132;BME280;64877;50.994;13.650;2023-07-31T03:08:20;99251.22;;;17.88;67.72
76132;BME280;64877;50.994;13.650;2023-07-31T03:10:46;99247.63;;;17.87;67.48
76132;BME280;64877;50.994;13.650;2023-07-31T03:13:11;99250.19;;;17.89;67.71
76132;BME280;64877;50.994;13.650;2023-07-31T03:15:37;99250.50;;;17.94;67.94
76132;BME280;64877;50.994;13.650;2023-07-31T03:18:02;99259.72;;;17.93;67.88
76132;BME280;64877;50.994;13.650;2023-07-31T03:20:28;99264.16;;;18.02;67.62
76132;BME280;64877;50.994;13.650;2023-07-31T03:22:53;99261.72;;;18.07;67.24
76132;BME280;64877;50.994;13.650;2023-07-31T03:25:19;99262.94;;;18.04;67.59
76132;BME280;64877;50.994;13.650;2023-07-31T03:27:44;99265.31;;;18.07;67.65
76132;BME280;64877;50.994;13.650;2023-07-31T03:30:10;99269.59;;;18.10;69.17
76132;BME280;64877;50.994;13.650;2023-07-31T03:32:36;99269.13;;;18.29;70.08
76132;BME280;64877;50.994;13.650;2023-07-31T03:35:01;99272.69;;;18.38;70.80
76132;BME280;64877;50.994;13.650;2023-07-31T03:37:27;99278.84;;;18.40;74.17
76132;BME280;64877;50.994;13.650;2023-07-31T03:39:53;99275.66;;;18.28;75.66
76132;BME280;64877;50.994;13.650;2023-07-31T03:42:18;99276.38;;;18.14;78.31
76132;BME280;64877;50.994;13.650;2023-07-31T03:44:44;99269.41;;;18.12;79.18
76132;BME280;64877;50.994;13.650;2023-07-31T03:47:10;99262.78;;;18.06;81.06
76132;BME280;64877;50.994;13.650;2023-07-31T03:49:36;99261.72;;;18.07;81.71
76132;BME280;64877;50.994;13.650;2023-07-31T03:52:02;99260.03;;;18.06;82.79
76132;BME280;64877;50.994;13.650;2023-07-31T03:54:28;99274.88;;;18.12;83.79
76132;BME280;64877;50.994;13.650;2023-07-31T03:56:53;99265.19;;;18.01;84.60
76132;BME280;64877;50.994;13.650;2023-07-31T03:59:18;99252.91;;;17.89;85.71
76132;BME280;64877;50.994;13.650;2023-07-31T04:01:44;99263.00;;;17.80;86.90
76132;BME280;64877;50.994;13.650;2023-07-31T04:04:09;99259.41;;;17.88;87.39
76132;BME280;64877;50.994;13.650;2023-07-31T04:06:35;99252.75;;;17.90;87.90
76132;BME280;64877;50.994;13.650;2023-07-31T04:09:01;99256.03;;;17.77;90.02
76132;BME280;64877;50.994;13.650;2023-07-31T04:11:26;99248.66;;;17.70;90.57
76132;BME280;64877;50.994;13.650;2023-07-31T04:13:52;99247.16;;;17.75;90.31
76132;BME280;64877;50.994;13.650;2023-07-31T04:16:17;99246.47;;;17.65;91.88
76132;BME280;64877;50.994;13.650;2023-07-31T04:18:43;99245.97;;;17.53;94.06
76132;BME280;64877;50.994;13.650;2023-07-31T04:21:08;99245.78;;;17.55;95.00
76132;BME280;64877;50.994;13.650;2023-07-31T04:23:35;99238.81;;;17.61;94.64
76132;BME280;64877;50.994;13.650;2023-07-31T04:26:00;99239.00;;;17.51;96.05
76132;BME280;64877;50.994;13.650;2023-07-31T04:28:26;99232.56;;;17.36;97.39
76132;BME280;64877;50.994;13.650;2023-07-31T04:30:52;99230.63;;;17.52;96.18
76132;BME280;64877;50.994;13.650;2023-07-31T04:33:18;99224.47;;;17.58;97.08
76132;BME280;64877;50.994;13.650;2023-07-31T04:35:54;99222.63;;;17.43;99.04
76132;BME280;64877;50.994;13.650;2023-07-31T04:38:20;99217.50;;;17.48;97.89
76132;BME280;64877;50.994;13.650;2023-07-31T04:40:46;99211.34;;;17.54;98.43
76132;BME280;64877;50.994;13.650;2023-07-31T04:43:12;99208.78;;;17.52;98.57
76132;BME280;64877;50.994;13.650;2023-07-31T04:45:37;99196.50;;;17.48;97.57
76132;BME280;64877;50.994;13.650;2023-07-31T04:48:03;99208.28;;;17.49;97.53
76132;BME280;64877;50.994;13.650;2023-07-31T04:50:28;99198.38;;;17.56;98.36
76132;BME280;64877;50.994;13.650;2023-07-31T04:52:55;99210.47;;;17.53;98.73
76132;BME280;64877;50.994;13.650;2023-07-31T04:55:21;99203.84;;;17.56;98.16
76132;BME280;64877;50.994;13.650;2023-07-31T04:57:46;99203.47;;;17.59;97.71
76132;BME280;64877;50.994;13.650;2023-07-31T05:00:12;99201.06;;;17.64;97.62
76132;BME280;64877;50.994;13.650;2023-07-31T05:02:37;99206.25;;;17.51;98.37
76132;BME280;64877;50.994;13.650;2023-07-31T05:05:03;99203.13;;;17.62;98.49
76132;BME280;64877;50.994;13.650;2023-07-31T05:07:29;99200.03;;;17.73;97.10
76132;BME280;64877;50.994;13.650;2023-07-31T05:09:54;99188.41;;;17.79;96.07
76132;BME280;64877;50.994;13.650;2023-07-31T05:12:19;99196.56;;;17.88;95.20
76132;BME280;64877;50.994;13.650;2023-07-31T05:14:45;99203.19;;;17.93;95.17
76132;BME280;64877;50.994;13.650;2023-07-31T05:17:10;99189.09;;;17.81;96.95
76132;BME280;64877;50.994;13.650;2023-07-31T05:19:36;99189.03;;;17.90;95.21
76132;BME280;64877;50.994;13.650;2023-07-31T05:22:01;99182.72;;;17.89;94.82
76132;BME280;64877;50.994;13.650;2023-07-31T05:24:27;99187.66;;;17.94;95.37
76132;BME280;64877;50.994;13.650;2023-07-31T05:26:52;99186.06;;;18.07;94.29
76132;BME280;64877;50.994;13.650;2023-07-31T05:29:17;99184.19;;;18.08;94.01
76132;BME280;64877;50.994;13.650;2023-07-31T05:31:43;99181.22;;;18.18;93.52
76132;BME280;64877;50.994;13.650;2023-07-31T05:34:08;99183.91;;;18.26;91.80
76132;BME280;64877;50.994;13.650;2023-07-31T05:36:34;99188.00;;;18.30;91.60
76132;BME280;64877;50.994;13.650;2023-07-31T05:39:00;99180.25;;;18.33;91.64
76132;BME280;64877;50.994;13.650;2023-07-31T05:41:31;99182.97;;;18.42;91.10
76132;BME280;64877;50.994;13.650;2023-07-31T05:43:56;99186.31;;;18.52;91.33
76132;BME280;64877;50.994;13.650;2023-07-31T05:46:22;99181.50;;;18.54;91.32
76132;BME280;64877;50.994;13.650;2023-07-31T05:48:47;99185.66;;;18.50;90.16
76132;BME280;64877;50.994;13.650;2023-07-31T05:51:13;99175.56;;;18.50;91.29
76132;BME280;64877;50.994;13.650;2023-07-31T05:53:38;99182.03;;;18.49;90.68
76132;BME280;64877;50.994;13.650;2023-07-31T05:56:06;99187.06;;;18.38;92.69
76132;BME280;64877;50.994;13.650;2023-07-31T05:58:31;99177.72;;;18.32;92.84
76132;BME280;64877;50.994;13.650;2023-07-31T06:00:57;99177.38;;;18.35;92.08
76132;BME280;64877;50.994;13.650;2023-07-31T06:03:22;99169.25;;;18.50;91.37
76132;BME280;64877;50.994;13.650;2023-07-31T06:05:48;99165.47;;;18.51;90.46
76132;BME280;64877;50.994;13.650;2023-07-31T06:08:13;99176.72;;;18.56;89.60
76132;BME280;64877;50.994;13.650;2023-07-31T06:10:39;99173.78;;;18.57;89.36
76132;BME280;64877;50.994;13.650;2023-07-31T06:13:04;99169.84;;;18.60;89.35
76132;BME280;64877;50.994;13.650;2023-07-31T06:15:30;99177.75;;;18.55;90.48
76132;BME280;64877;50.994;13.650;2023-07-31T06:17:55;99178.91;;;18.60;90.30
76132;BME280;64877;50.994;13.650;2023-07-31T06:20:21;99181.59;;;18.69;90.14
76132;BME280;64877;50.994;13.650;2023-07-31T06:22:46;99175.41;;;18.75;88.83
76132;BME280;64877;50.994;13.650;2023-07-31T06:25:12;99179.94;;;18.82;88.54
76132;BME280;64877;50.994;13.650;2023-07-31T06:27:37;99177.16;;;18.91;87.67
76132;BME280;64877;50.994;13.650;2023-07-31T06:30:03;99179.88;;;18.91;86.65
76132;BME280;64877;50.994;13.650;2023-07-31T06:32:29;99184.97;;;18.94;86.66
76132;BME280;64877;50.994;13.650;2023-07-31T06:34:55;99183.75;;;18.96;87.77
76132;BME280;64877;50.994;13.650;2023-07-31T06:37:20;99182.22;;;18.94;87.49
76132;BME280;64877;50.994;13.650;2023-07-31T06:39:46;99172.31;;;18.93;86.93
76132;BME280;64877;50.994;13.650;2023-07-31T06:42:11;99171.72;;;19.05;84.99
76132;BME280;64877;50.994;13.650;2023-07-31T06:44:37;99166.97;;;19.14;84.19
76132;BME280;64877;50.994;13.650;2023-07-31T06:47:02;99170.75;;;19.13;84.06
76132;BME280;64877;50.994;13.650;2023-07-31T06:49:28;99167.66;;;19.16;83.72
76132;BME280;64877;50.994;13.650;2023-07-31T06:51:53;99162.28;;;19.23;83.46
76132;BME280;64877;50.994;13.650;2023-07-31T06:54:19;99166.63;;;19.17;83.58
76132;BME280;64877;50.994;13.650;2023-07-31T06:56:44;99176.94;;;19.30;82.89
76132;BME280;64877;50.994;13.650;2023-07-31T06:59:09;99175.78;;;19.39;81.63
76132;BME280;64877;50.994;13.650;2023-07-31T07:01:35;99172.03;;;19.40;81.53
76132;BME280;64877;50.994;13.650;2023-07-31T07:04:00;99169.69;;;19.52;81.43
76132;BME280;64877;50.994;13.650;2023-07-31T07:06:26;99171.38;;;19.53;81.23
76132;BME280;64877;50.994;13.650;2023-07-31T07:08:52;99173.53;;;19.57;80.32
76132;BME280;64877;50.994;13.650;2023-07-31T07:11:17;99167.81;;;19.67;79.73
76132;BME280;64877;50.994;13.650;2023-07-31T07:13:43;99166.69;;;19.76;79.31
76132;BME280;64877;50.994;13.650;2023-07-31T07:16:08;99181.22;;;19.92;79.34
76132;BME280;64877;50.994;13.650;2023-07-31T07:18:35;99171.84;;;20.01;77.83
76132;BME280;64877;50.994;13.650;2023-07-31T07:21:00;99178.66;;;20.05;77.23
76132;BME280;64877;50.994;13.650;2023-07-31T07:23:27;99171.03;;;20.22;77.53
76132;BME280;64877;50.994;13.650;2023-07-31T07:25:53;99176.28;;;20.38;77.15
76132;BME280;64877;50.994;13.650;2023-07-31T07:28:20;99178.16;;;20.52;75.48
76132;BME280;64877;50.994;13.650;2023-07-31T07:30:51;99168.50;;;20.56;75.47
76132;BME280;64877;50.994;13.650;2023-07-31T07:33:16;99168.56;;;20.63;74.24
76132;BME280;64877;50.994;13.650;2023-07-31T07:35:42;99165.53;;;20.58;73.01
76132;BME280;64877;50.994;13.650;2023-07-31T07:38:10;99165.75;;;20.56;72.89
76132;BME280;64877;50.994;13.650;2023-07-31T07:40:39;99157.72;;;20.55;73.08
76132;BME280;64877;50.994;13.650;2023-07-31T07:43:05;99149.78;;;20.45;73.85
76132;BME280;64877;50.994;13.650;2023-07-31T07:45:30;99156.69;;;20.41;73.07
76132;BME280;64877;50.994;13.650;2023-07-31T07:47:55;99159.75;;;20.31;73.54
76132;BME280;64877;50.994;13.650;2023-07-31T07:50:21;99161.28;;;20.34;73.73
76132;BME280;64877;50.994;13.650;2023-07-31T07:52:46;99167.66;;;20.41;73.95
76132;BME280;64877;50.994;13.650;2023-07-31T07:55:12;99160.59;;;20.32;74.38
76132;BME280;64877;50.994;13.650;2023-07-31T07:57:37;99167.19;;;20.37;73.80
76132;BME280;64877;50.994;13.650;2023-07-31T08:00:03;99170.50;;;20.48;73.25
76132;BME280;64877;50.994;13.650;2023-07-31T08:02:39;99166.53;;;20.72;73.04
76132;BME280;64877;50.994;13.650;2023-07-31T08:05:05;99163.72;;;22.12;66.84
76132;BME280;64877;50.994;13.650;2023-07-31T08:07:30;99158.66;;;22.15;64.91
76132;BME280;64877;50.994;13.650;2023-07-31T08:09:55;99167.75;;;22.90;61.33
76132;BME280;64877;50.994;13.650;2023-07-31T08:12:22;99175.56;;;23.73;57.14
76132;BME280;64877;50.994;13.650;2023-07-31T08:14:48;99177.41;;;23.86;56.00
76132;BME280;64877;50.994;13.650;2023-07-31T08:17:13;99174.91;;;23.51;57.62
76132;BME280;64877;50.994;13.650;2023-07-31T08:19:39;99170.03;;;22.80;60.30
76132;BME280;64877;50.994;13.650;2023-07-31T08:22:04;99173.91;;;22.92;62.05
76132;BME280;64877;50.994;13.650;2023-07-31T08:24:30;99180.19;;;22.60;60.89
76132;BME280;64877;50.994;13.650;2023-07-31T08:26:55;99177.72;;;23.05;59.18
76132;BME280;64877;50.994;13.650;2023-07-31T08:29:21;99189.16;;;23.15;60.30
76132;BME280;64877;50.994;13.650;2023-07-31T08:31:46;99188.13;;;23.03;59.80
76132;BME280;64877;50.994;13.650;2023-07-31T08:34:13;99178.94;;;22.69;59.27
76132;BME280;64877;50.994;13.650;2023-07-31T08:36:39;99186.88;;;22.31;61.48
76132;BME280;64877;50.994;13.650;2023-07-31T08:39:04;99172.22;;;22.17;61.31
76132;BME280;64877;50.994;13.650;2023-07-31T08:41:30;99187.81;;;22.03;62.35
76132;BME280;64877;50.994;13.650;2023-07-31T08:43:56;99182.59;;;21.80;64.45
76132;BME280;64877;50.994;13.650;2023-07-31T08:46:22;99182.84;;;21.85;63.38
76132;BME280;64877;50.994;13.650;2023-07-31T08:48:49;99187.47;;;21.78;63.84
76132;BME280;64877;50.994;13.650;2023-07-31T08:51:16;99181.63;;;21.60;65.22
76132;BME280;64877;50.994;13.650;2023-07-31T08:53:42;99179.84;;;21.46;66.17
76132;BME280;64877;50.994;13.650;2023-07-31T08:56:07;99180.44;;;21.41;66.07
76132;BME280;64877;50.994;13.650;2023-07-31T08:58:34;99177.66;;;21.34;65.67
76132;BME280;64877;50.994;13.650;2023-07-31T09:01:01;99175.75;;;21.35;67.03
76132;BME280;64877;50.994;13.650;2023-07-31T09:03:29;99183.00;;;21.21;65.35
76132;BME280;64877;50.994;13.650;2023-07-31T09:05:58;99181.66;;;21.10;66.38
76132;BME280;64877;50.994;13.650;2023-07-31T09:08:26;99185.06;;;21.12;67.16
76132;BME280;64877;50.994;13.650;2023-07-31T09:11:02;99182.97;;;21.14;66.21
76132;BME280;64877;50.994;13.650;2023-07-31T09:13:31;99172.59;;;21.10;66.85
76132;BME280;64877;50.994;13.650;2023-07-31T09:15:57;99174.88;;;21.06;67.25
76132;BME280;64877;50.994;13.650;2023-07-31T09:18:22;99174.38;;;20.96;67.46
76132;BME280;64877;50.994;13.650;2023-07-31T09:21:06;99176.00;;;20.90;67.58
76132;BME280;64877;50.994;13.650;2023-07-31T09:23:43;99177.56;;;21.00;67.25
76132;BME280;64877;50.994;13.650;2023-07-31T09:26:10;99166.66;;;20.85;67.21
76132;BME280;64877;50.994;13.650;2023-07-31T09:28:37;99164.91;;;20.99;66.36
76132;BME280;64877;50.994;13.650;2023-07-31T09:31:08;99161.34;;;21.05;66.97
76132;BME280;64877;50.994;13.650;2023-07-31T09:33:55;99160.53;;;21.11;66.69
76132;BME280;64877;50.994;13.650;2023-07-31T09:36:21;99154.41;;;21.09;66.61
76132;BME280;64877;50.994;13.650;2023-07-31T09:38:47;99156.19;;;20.95;67.30
76132;BME280;64877;50.994;13.650;2023-07-31T09:41:13;99149.50;;;21.04;66.50
76132;BME280;64877;50.994;13.650;2023-07-31T09:43:38;99156.81;;;21.19;67.37
76132;BME280;64877;50.994;13.650;2023-07-31T09:46:13;99150.72;;;20.95;67.58
76132;BME280;64877;50.994;13.650;2023-07-31T09:48:39;99151.66;;;21.09;65.94
76132;BME280;64877;50.994;13.650;2023-07-31T09:51:04;99145.44;;;21.28;66.23
76132;BME280;64877;50.994;13.650;2023-07-31T09:53:30;99140.44;;;21.32;65.47
76132;BME280;64877;50.994;13.650;2023-07-31T09:55:58;99147.13;;;21.51;65.18
76132;BME280;64877;50.994;13.650;2023-07-31T09:58:25;99147.34;;;21.56;63.18
76132;BME280;64877;50.994;13.650;2023-07-31T10:00:53;99137.06;;;21.71;63.38
76132;BME280;64877;50.994;13.650;2023-07-31T10:03:20;99135.75;;;21.60;64.14
76132;BME280;64877;50.994;13.650;2023-07-31T10:05:52;99138.88;;;21.51;63.80
76132;BME280;64877;50.994;13.650;2023-07-31T10:08:21;99135.97;;;21.59;63.01
76132;BME280;64877;50.994;13.650;2023-07-31T10:10:48;99134.91;;;21.60;64.12
76132;BME280;64877;50.994;13.650;2023-07-31T10:13:15;99134.25;;;21.58;65.19
76132;BME280;64877;50.994;13.650;2023-07-31T10:15:41;99134.44;;;21.50;63.94
76132;BME280;64877;50.994;13.650;2023-07-31T10:18:08;99134.19;;;21.45;64.50
76132;BME280;64877;50.994;13.650;2023-07-31T10:20:35;99120.72;;;21.56;64.16
76132;BME280;64877;50.994;13.650;2023-07-31T10:23:01;99116.06;;;21.57;63.28
76132;BME280;64877;50.994;13.650;2023-07-31T10:25:27;99111.50;;;21.71;63.78
76132;BME280;64877;50.994;13.650;2023-07-31T10:27:53;99111.97;;;21.81;62.52
76132;BME280;64877;50.994;13.650;2023-07-31T10:30:22;99105.16;;;21.77;62.74
76132;BME280;64877;50.994;13.650;2023-07-31T10:32:51;99102.63;;;21.75;63.11
76132;BME280;64877;50.994;13.650;2023-07-31T10:35:18;99099.50;;;21.78;62.87
76132;BME280;64877;50.994;13.650;2023-07-31T10:37:44;99104.84;;;21.93;62.48
76132;BME280;64877;50.994;13.650;2023-07-31T10:40:17;99100.28;;;22.13;60.90
76132;BME280;64877;50.994;13.650;2023-07-31T10:42:53;99090.13;;;22.27;60.74
76132;BME280;64877;50.994;13.650;2023-07-31T10:45:36;99084.00;;;22.32;60.62
76132;BME280;64877;50.994;13.650;2023-07-31T10:48:06;99084.66;;;22.47;60.42
76132;BME280;64877;50.994;13.650;2023-07-31T10:50:37;99087.03;;;22.63;60.04
76132;BME280;64877;50.994;13.650;2023-07-31T10:53:03;99085.09;;;22.70;62.82
76132;BME280;64877;50.994;13.650;2023-07-31T10:55:33;99086.78;;;22.52;60.92
76132;BME280;64877;50.994;13.650;2023-07-31T10:58:09;99076.84;;;22.44;60.17
76132;BME280;64877;50.994;13.650;2023-07-31T11:00:40;99079.34;;;22.32;61.64
76132;BME280;64877;50.994;13.650;2023-07-31T11:03:12;99090.31;;;22.12;62.52
76132;BME280;64877;50.994;13.650;2023-07-31T11:08:32;99093.78;;;21.86;65.14
76132;BME280;64877;50.994;13.650;2023-07-31T11:13:49;99084.47;;;21.81;66.26
76132;BME280;64877;50.994;13.650;2023-07-31T11:16:15;99076.59;;;21.71;66.98
76132;BME280;64877;50.994;13.650;2023-07-31T11:18:43;99083.94;;;21.57;69.87
76132;BME280;64877;50.994;13.650;2023-07-31T11:21:12;99080.56;;;21.55;71.13
76132;BME280;64877;50.994;13.650;2023-07-31T11:23:38;99069.31;;;21.44;70.41
76132;BME280;64877;50.994;13.650;2023-07-31T11:26:05;99069.97;;;21.52;72.26
76132;BME280;64877;50.994;13.650;2023-07-31T11:28:32;99066.19;;;21.60;69.81
76132;BME280;64877;50.994;13.650;2023-07-31T11:30:59;99062.84;;;21.71;71.96
76132;BME280;64877;50.994;13.650;2023-07-31T11:33:25;99064.44;;;21.93;72.49
76132;BME280;64877;50.994;13.650;2023-07-31T11:35:50;99053.66;;;21.99;70.24
76132;BME280;64877;50.994;13.650;2023-07-31T11:38:27;99050.97;;;22.18;69.50
76132;BME280;64877;50.994;13.650;2023-07-31T11:40:55;99049.94;;;22.33;68.66
76132;BME280;64877;50.994;13.650;2023-07-31T11:43:21;99051.44;;;22.49;69.99
76132;BME280;64877;50.994;13.650;2023-07-31T11:45:57;99048.25;;;22.78;66.21
76132;BME280;64877;50.994;13.650;2023-07-31T11:48:27;99037.03;;;22.80;65.49
76132;BME280;64877;50.994;13.650;2023-07-31T11:50:57;99049.31;;;22.97;63.90
76132;BME280;64877;50.994;13.650;2023-07-31T11:53:46;99047.84;;;23.08;62.43
76132;BME280;64877;50.994;13.650;2023-07-31T11:56:18;99048.66;;;23.15;63.27
76132;BME280;64877;50.994;13.650;2023-07-31T11:58:46;99039.31;;;23.16;62.81
76132;BME280;64877;50.994;13.650;2023-07-31T12:01:11;99044.22;;;23.01;63.26
76132;BME280;64877;50.994;13.650;2023-07-31T12:03:39;99035.75;;;22.95;68.18
76132;BME280;64877;50.994;13.650;2023-07-31T12:06:06;99031.28;;;23.01;63.68
76132;BME280;64877;50.994;13.650;2023-07-31T12:08:32;99019.41;;;23.14;66.07
76132;BME280;64877;50.994;13.650;2023-07-31T12:11:03;99023.41;;;23.25;62.25
76132;BME280;64877;50.994;13.650;2023-07-31T12:13:31;99004.50;;;23.35;60.14
76132;BME280;64877;50.994;13.650;2023-07-31T12:15:58;99008.72;;;23.44;61.32
76132;BME280;64877;50.994;13.650;2023-07-31T12:18:26;99011.63;;;23.56;60.39
76132;BME280;64877;50.994;13.650;2023-07-31T12:20:59;99017.34;;;23.54;61.20
76132;BME280;64877;50.994;13.650;2023-07-31T12:26:08;99012.25;;;23.58;55.98
76132;BME280;64877;50.994;13.650;2023-07-31T12:28:36;99007.13;;;23.61;56.54
76132;BME280;64877;50.994;13.650;2023-07-31T12:31:04;99003.09;;;23.77;56.45
76132;BME280;64877;50.994;13.650;2023-07-31T12:33:35;99002.13;;;23.90;53.80
76132;BME280;64877;50.994;13.650;2023-07-31T12:36:02;98993.19;;;23.94;54.19
76132;BME280;64877;50.994;13.650;2023-07-31T12:38:29;98986.00;;;23.93;53.76
76132;BME280;64877;50.994;13.650;2023-07-31T12:40:55;98993.50;;;24.11;53.08
76132;BME280;64877;50.994;13.650;2023-07-31T12:43:20;98969.34;;;24.07;51.82
76132;BME280;64877;50.994;13.650;2023-07-31T12:45:46;98986.28;;;24.17;51.76
76132;BME280;64877;50.994;13.650;2023-07-31T12:48:13;98980.75;;;24.17;52.14
76132;BME280;64877;50.994;13.650;2023-07-31T12:50:38;98970.75;;;24.16;50.23
76132;BME280;64877;50.994;13.650;2023-07-31T12:53:05;98958.28;;;24.07;50.32
76132;BME280;64877;50.994;13.650;2023-07-31T12:55:31;98953.25;;;24.04;50.96
76132;BME280;64877;50.994;13.650;2023-07-31T12:57:58;98945.97;;;24.09;51.39
76132;BME280;64877;50.994;13.650;2023-07-31T13:00:23;98944.31;;;24.02;55.15
76132;BME280;64877;50.994;13.650;2023-07-31T13:02:48;98946.25;;;24.01;52.11
76132;BME280;64877;50.994;13.650;2023-07-31T13:05:14;98942.94;;;23.92;51.88